Monument Valley, Utah
Current Conditions -  °F | °C
As of 5:55 AM on Thursday 27 Nov 2014 (Local Time) from KBDG Reporting Station
Clear Clear  
Wind Chill: 33°   Ceiling: Unl
Heat Index: 33°   Visibility: 10mi
Dew Point: 20°   Wind: 0mph
Humidity: 59%   Direction: NA
Pressure: 30.52"   Gusts: NA
Location:  37.1°N, 110.32°W
Report Text: KBDG 271255Z AUTO 00000KT 10SM CLR 01/M07 A3052 RMK AO1 T00051068
Loading
Personal Weather Stations






























Interactive Weather Map New forecast layout! Learn more

10-Day Weather Forecast

Advertisements
Track Severe Weather on mobile